createdAt,value
2023-05-09T00:04:00.427Z,973.02
2023-05-09T00:14:00.602Z,972.98
2023-05-09T00:24:00.647Z,972.80
2023-05-09T00:34:00.965Z,972.87
2023-05-09T00:44:01.171Z,972.68
2023-05-09T00:54:01.256Z,972.59
2023-05-09T01:04:01.425Z,972.49
2023-05-09T01:14:01.617Z,972.30
2023-05-09T01:24:01.647Z,972.34
2023-05-09T01:34:01.974Z,972.38
2023-05-09T01:44:02.056Z,972.44
2023-05-09T01:54:02.325Z,972.43
2023-05-09T02:04:02.246Z,972.32
2023-05-09T02:14:02.550Z,972.29
2023-05-09T02:24:02.580Z,972.23
2023-05-09T02:34:02.768Z,972.25
2023-05-09T02:44:02.899Z,972.22
2023-05-09T02:54:03.231Z,972.18
2023-05-09T03:04:03.272Z,972.11
2023-05-09T03:14:03.566Z,971.96
2023-05-09T03:24:03.589Z,971.94
2023-05-09T03:34:04.181Z,971.86
2023-05-09T03:44:04.004Z,971.58
2023-05-09T03:54:04.328Z,971.54
2023-05-09T04:04:04.544Z,971.50
2023-05-09T04:14:04.596Z,971.54
2023-05-09T04:24:04.633Z,971.75
2023-05-09T04:34:04.927Z,971.65
2023-05-09T04:44:04.970Z,971.67
2023-05-09T04:54:05.502Z,971.76
2023-05-09T05:04:05.349Z,971.85
2023-05-09T05:14:05.662Z,971.74
2023-05-09T05:24:05.687Z,971.74
2023-05-09T05:34:06.051Z,971.74
2023-05-09T05:44:05.987Z,971.66
2023-05-09T05:54:06.377Z,971.57
2023-05-09T06:04:06.439Z,971.45
2023-05-09T06:14:06.782Z,971.31
2023-05-09T06:24:12.162Z,971.06
2023-05-09T06:34:07.951Z,971.01
2023-05-09T06:44:06.861Z,971.07
2023-05-09T06:54:07.181Z,970.91
2023-05-09T07:04:07.213Z,970.80
2023-05-09T07:14:07.558Z,970.74
2023-05-09T07:24:07.606Z,970.63
2023-05-09T07:34:07.951Z,970.54
2023-05-09T07:44:08.038Z,970.27
2023-05-09T07:54:08.339Z,970.12
2023-05-09T08:04:08.432Z,970.02
2023-05-09T08:14:08.787Z,969.87
2023-05-09T08:24:10.993Z,969.69
2023-05-09T08:34:08.934Z,969.65
2023-05-09T08:44:08.968Z,969.51
2023-05-09T08:54:09.399Z,969.35
2023-05-09T09:04:09.339Z,969.20
2023-05-09T09:14:09.952Z,969.17
2023-05-09T09:24:09.817Z,969.05
2023-05-09T09:34:09.860Z,968.90
2023-05-09T09:44:09.883Z,968.69
2023-05-09T09:54:10.226Z,968.58
2023-05-09T10:04:10.290Z,968.47
2023-05-09T10:14:10.627Z,968.30
2023-05-09T10:24:11.184Z,968.07
2023-05-09T10:34:10.925Z,967.97
2023-05-09T10:44:10.956Z,967.73
2023-05-09T10:54:11.524Z,967.63
2023-05-09T11:04:11.388Z,967.29
2023-05-09T11:14:11.715Z,967.23
2023-05-09T11:24:11.926Z,967.14
2023-05-09T11:34:11.886Z,966.88
2023-05-09T11:44:11.920Z,966.79
2023-05-09T11:54:12.253Z,966.64
2023-05-09T12:04:12.240Z,966.42
2023-05-09T12:14:12.530Z,966.26
2023-05-09T12:24:12.551Z,966.13
2023-05-09T12:34:13.052Z,966.01
2023-05-09T12:44:12.910Z,965.81
2023-05-09T12:54:13.204Z,965.76
2023-05-09T13:04:13.301Z,965.62
2023-05-09T13:14:13.574Z,965.45
2023-05-09T13:24:13.707Z,965.26
2023-05-09T13:34:13.885Z,965.01
2023-05-09T13:44:13.970Z,964.79
2023-05-09T13:54:14.376Z,964.73
2023-05-09T14:04:14.316Z,964.44
2023-05-09T14:14:14.513Z,964.28
2023-05-09T14:24:16.094Z,964.22
2023-05-09T14:34:14.891Z,964.08
2023-05-09T14:44:15.032Z,963.89
2023-05-09T14:54:15.293Z,963.80
2023-05-09T15:04:15.599Z,963.72
2023-05-09T15:14:15.562Z,963.62
2023-05-09T15:24:15.817Z,963.55
2023-05-09T15:34:15.904Z,963.44
2023-05-09T15:44:15.948Z,963.39
2023-05-09T15:54:16.238Z,963.31
2023-05-09T16:04:16.260Z,963.26
2023-05-09T16:14:16.624Z,963.19
2023-05-09T16:24:16.669Z,963.08
2023-05-09T16:34:16.972Z,962.91
2023-05-09T16:44:17.005Z,962.87
2023-05-09T16:54:17.331Z,962.75
2023-05-09T17:04:17.415Z,962.72
2023-05-09T17:14:17.620Z,962.71
2023-05-09T17:24:17.641Z,963.02
2023-05-09T17:34:18.014Z,963.25
2023-05-09T17:44:18.049Z,963.72
2023-05-09T17:54:18.579Z,963.41
2023-05-09T18:04:18.396Z,963.27
2023-05-09T18:14:18.825Z,963.60
2023-05-09T18:24:18.937Z,964.05
2023-05-09T18:34:18.990Z,964.05
2023-05-09T18:44:19.041Z,964.02
2023-05-09T18:54:19.365Z,963.97
2023-05-09T19:04:19.516Z,963.94
2023-05-09T19:14:19.699Z,964.12
2023-05-09T19:24:19.742Z,964.18
2023-05-09T19:34:19.958Z,964.24
2023-05-09T19:44:20.109Z,964.30
2023-05-09T19:54:20.701Z,964.38
2023-05-09T20:04:20.728Z,964.36
2023-05-09T20:14:20.745Z,964.49
2023-05-09T20:24:21.096Z,964.46
2023-05-09T20:34:21.069Z,964.39
2023-05-09T20:44:21.208Z,964.38
2023-05-09T20:54:21.640Z,964.33
2023-05-09T21:04:21.564Z,964.20
2023-05-09T21:14:21.892Z,964.28
2023-05-09T21:24:21.982Z,964.14
2023-05-09T21:34:22.180Z,964.06
2023-05-09T21:44:22.327Z,964.03
2023-05-09T21:54:22.565Z,964.04
2023-05-09T22:04:22.956Z,963.98
2023-05-09T22:14:23.334Z,963.85
2023-05-09T22:24:23.160Z,963.82
2023-05-09T22:34:23.492Z,963.80
2023-05-09T22:44:23.539Z,963.87
2023-05-09T22:54:24.334Z,963.76
2023-05-09T23:04:23.928Z,963.82
2023-05-09T23:14:24.154Z,963.84
2023-05-09T23:24:24.287Z,963.70
2023-05-09T23:34:24.486Z,963.73
2023-05-09T23:44:24.632Z,963.84
2023-05-09T23:54:24.864Z,963.80
